CST,Max TemperatureF,Mean TemperatureF,Min TemperatureF,Max Dew PointF,MeanDew PointF,Min DewpointF,Max Humidity, Mean Humidity, Min Humidity, Max Sea Level PressureIn, Mean Sea Level PressureIn, Min Sea Level PressureIn, Max VisibilityMiles, Mean VisibilityMiles, Min VisibilityMiles, Max Wind SpeedMPH, Mean Wind SpeedMPH, Max Gust SpeedMPH,PrecipitationIn, CloudCover, Events, WindDirDegrees
2011-11-1,75,59,42,55,45,35,100,63,25,30.24,30.20,30.16,10,10,9,14,5,18,0.00,0,,106
2011-11-2,80,67,53,62,56,51,100,74,48,30.21,30.15,30.10,10,10,4,15,7,23,0.00,2,,97
2011-11-3,66,56,46,64,53,38,100,72,43,30.19,30.11,30.04,10,8,2,20,6,25,0.00,4,Rain,302
2011-11-4,67,53,38,47,42,36,93,69,45,30.20,30.14,30.09,10,10,10,12,3,17,0.00,0,,321
2011-11-5,71,55,39,56,49,39,100,75,49,30.18,30.12,30.07,10,9,7,12,5,17,0.00,1,,112
2011-11-6,78,66,54,63,58,51,100,80,60,30.20,30.16,30.09,10,10,8,18,10,22,0.00,3,,95
2011-11-7,80,70,59,65,63,58,100,77,54,30.21,30.14,30.08,10,10,10,17,9,22,0.00,4,,105
2011-11-8,80,72,63,68,65,63,100,81,62,30.08,30.03,29.98,10,9,2,18,7,23,T,5,Rain,111
2011-11-9,71,62,53,70,56,43,100,72,44,30.22,30.08,30.01,10,8,1,14,7,22,0.83,4,Rain,289
2011-11-10,63,50,37,42,32,22,85,54,23,30.33,30.27,30.22,10,10,10,17,6,28,0.00,0,,348
2011-11-11,66,50,33,39,33,28,100,63,26,30.32,30.26,30.21,10,10,9,13,2,16,0.00,0,,212
2011-11-12,73,55,37,54,48,36,100,75,49,30.22,30.17,30.09,10,10,8,15,7,20,0.00,3,,128
2011-11-13,82,70,57,63,58,55,93,68,42,30.09,30.04,29.97,10,10,10,26,9,28,0.00,1,,161
2011-11-14,83,70,57,72,64,52,100,76,51,30.04,29.99,29.90,10,4,0,15,5,21,0.00,5,Fog,170
2011-11-15,85,77,69,73,69,65,100,76,51,29.91,29.85,29.79,10,6,0,20,10,25,3.06,6,Fog-Rain-Thunderstorm,194
2011-11-16,80,71,62,72,68,59,100,84,67,30.07,29.84,29.76,10,9,2,23,8,30,0.60,6,Rain,245
2011-11-17,65,52,39,55,37,28,93,60,26,30.35,30.26,30.10,10,10,10,14,6,22,0.00,2,,355
2011-11-18,65,50,35,51,39,29,100,69,38,30.33,30.25,30.14,10,10,4,15,5,20,0.00,0,,85
2011-11-19,79,64,48,64,57,47,100,79,58,30.16,30.12,30.07,10,7,0,16,7,22,0.00,3,Fog,105
2011-11-20,79,70,61,70,66,62,100,87,74,30.23,30.17,30.12,10,5,0,10,6,15,0.00,5,Fog,111
2011-11-21,80,72,63,70,67,63,100,81,62,30.23,30.14,30.02,10,6,0,12,4,17,T,7,Fog,104
2011-11-22,80,72,64,72,67,63,100,85,69,30.09,30.01,29.96,10,8,0,20,5,29,1.63,7,Fog-Rain-Thunderstorm,146
2011-11-23,72,62,51,63,54,49,100,74,47,30.27,30.18,30.09,10,10,10,10,5,15,0.00,4,,360
2011-11-24,69,58,46,50,47,44,100,70,40,30.33,30.28,30.24,10,10,7,13,4,16,0.00,0,,63
2011-11-25,76,61,45,63,53,44,100,77,53,30.25,30.16,30.03,10,8,0,14,8,20,0.00,4,Fog,93
2011-11-26,77,69,60,72,66,59,100,94,87,30.05,29.96,29.88,10,7,2,24,7,38,1.16,8,Rain,162
2011-11-27,60,52,44,59,47,38,97,87,76,30.12,30.04,29.96,10,10,2,16,8,24,0.03,8,Rain,310
2011-11-28,47,41,34,40,36,31,100,77,53,30.09,30.05,29.99,10,10,6,14,5,18,0.04,6,Rain,296
2011-11-29,60,47,33,38,33,29,100,66,31,30.15,30.07,30.01,10,10,10,15,6,21,0.00,0,,280
2011-11-30,60,47,34,40,36,33,100,68,36,30.25,30.20,30.16,10,10,8,9,1,12,0.00,0,,50